createdAt,value
2024-02-14T00:03:35.559Z,17.60
2024-02-14T00:08:39.263Z,21.70
2024-02-14T00:13:41.206Z,11.40
2024-02-14T00:18:42.834Z,13.60
2024-02-14T00:29:00.842Z,10.10
2024-02-14T00:34:02.776Z,11.50
2024-02-14T00:39:05.460Z,12.00
2024-02-14T00:44:07.587Z,8.60
2024-02-14T00:49:09.822Z,13.80
2024-02-14T00:54:11.546Z,14.60
2024-02-14T00:59:13.159Z,9.20
2024-02-14T01:04:14.728Z,12.50
2024-02-14T01:09:16.378Z,10.90
2024-02-14T01:14:18.025Z,8.70
2024-02-14T01:19:20.955Z,7.80
2024-02-14T01:24:23.612Z,7.20
2024-02-14T01:29:25.181Z,10.60
2024-02-14T01:34:26.911Z,8.80
2024-02-14T01:39:28.670Z,13.00
2024-02-14T01:44:30.303Z,10.90
2024-02-14T01:49:32.357Z,14.70
2024-02-14T01:54:36.136Z,13.70
2024-02-14T01:59:37.914Z,12.50
2024-02-14T02:04:39.461Z,13.50
2024-02-14T02:09:41.066Z,15.50
2024-02-14T02:14:42.671Z,16.10
2024-02-14T02:19:44.903Z,18.30
2024-02-14T02:24:47.308Z,20.30
2024-02-14T02:29:48.989Z,25.20
2024-02-14T02:34:50.752Z,20.40
2024-02-14T02:39:52.490Z,24.40
2024-02-14T02:44:54.553Z,16.60
2024-02-14T02:49:56.574Z,20.50
2024-02-14T02:54:58.356Z,13.90
2024-02-14T03:00:00.089Z,18.20
2024-02-14T03:05:03.979Z,19.80
2024-02-14T03:10:06.834Z,21.30
2024-02-14T03:15:11.783Z,22.60
2024-02-14T03:20:16.717Z,27.30
2024-02-14T03:25:21.706Z,19.80
2024-02-14T03:30:24.030Z,16.30
2024-02-14T03:35:28.162Z,16.00
2024-02-14T03:40:31.500Z,13.50
2024-02-14T03:45:33.115Z,17.20
2024-02-14T03:50:34.662Z,12.30
2024-02-14T03:55:36.241Z,14.30
2024-02-14T04:00:38.721Z,16.10
2024-02-14T04:05:40.514Z,17.70
2024-02-14T04:10:42.234Z,17.50
2024-02-14T04:15:47.545Z,14.00
2024-02-14T04:20:49.900Z,14.40
2024-02-14T04:25:51.586Z,12.50
2024-02-14T04:30:54.555Z,11.20
2024-02-14T04:35:56.477Z,13.60
2024-02-14T04:40:59.575Z,12.00
2024-02-14T04:46:01.598Z,13.50
2024-02-14T04:51:05.637Z,13.90
2024-02-14T04:56:08.891Z,16.40
2024-02-14T05:01:11.867Z,16.50
2024-02-14T05:06:13.599Z,17.80
2024-02-14T05:11:15.518Z,13.60
2024-02-14T05:16:21.781Z,17.80
2024-02-14T05:21:23.435Z,19.60
2024-02-14T05:26:24.958Z,13.00
2024-02-14T05:31:43.796Z,11.80
2024-02-14T05:36:47.405Z,24.00
2024-02-14T05:41:50.396Z,17.00
2024-02-14T05:46:52.111Z,22.00
2024-02-14T05:51:54.580Z,32.30
2024-02-14T05:56:56.159Z,29.30
2024-02-14T06:01:57.924Z,26.90
2024-02-14T06:06:59.665Z,24.50
2024-02-14T06:12:01.493Z,27.20
2024-02-14T06:17:03.328Z,22.60
2024-02-14T06:22:05.142Z,21.80
2024-02-14T06:27:07.775Z,22.90
2024-02-14T06:32:09.622Z,23.50
2024-02-14T06:37:11.173Z,28.40
2024-02-14T06:42:12.767Z,27.70
2024-02-14T06:47:14.412Z,33.20
2024-02-14T06:52:16.013Z,27.50
2024-02-14T06:57:17.543Z,26.00
2024-02-14T07:02:19.165Z,26.20
2024-02-14T07:07:20.705Z,24.00
2024-02-14T07:12:22.521Z,21.60
2024-02-14T07:17:24.660Z,26.00
2024-02-14T07:22:26.290Z,21.40
2024-02-14T07:27:28.206Z,23.00
2024-02-14T07:32:29.906Z,22.60
2024-02-14T07:37:31.848Z,27.20
2024-02-14T07:42:33.517Z,18.40
2024-02-14T07:47:35.244Z,47.50
2024-02-14T07:52:37.655Z,18.60
2024-02-14T07:57:40.404Z,13.50
2024-02-14T08:02:42.040Z,19.60
2024-02-14T08:07:43.820Z,16.10
2024-02-14T08:12:45.351Z,16.40
2024-02-14T08:17:47.594Z,12.10
2024-02-14T08:22:50.528Z,11.70
2024-02-14T08:27:52.231Z,14.60
2024-02-14T08:32:53.932Z,13.80
2024-02-14T08:37:57.886Z,12.80
2024-02-14T08:43:00.803Z,14.90
2024-02-14T08:48:05.727Z,12.10
2024-02-14T08:53:07.980Z,11.70
2024-02-14T08:58:13.253Z,12.00
2024-02-14T09:03:14.916Z,12.70
2024-02-14T09:08:16.671Z,11.40
2024-02-14T09:13:18.367Z,12.20
2024-02-14T09:18:20.386Z,8.40
2024-02-14T09:23:23.685Z,42.10
2024-02-14T09:28:26.438Z,33.50
2024-02-14T09:33:28.713Z,9.40
2024-02-14T09:38:30.617Z,9.50
2024-02-14T09:43:45.526Z,7.70
2024-02-14T09:48:47.415Z,7.00
2024-02-14T09:53:50.736Z,12.30
2024-02-14T09:58:57.671Z,7.10
2024-02-14T10:03:59.709Z,5.50
2024-02-14T10:09:04.255Z,7.60
2024-02-14T10:14:10.327Z,8.10
2024-02-14T10:19:21.700Z,5.60
2024-02-14T10:24:24.989Z,5.40
2024-02-14T10:29:27.241Z,6.70
2024-02-14T10:34:30.115Z,5.70
2024-02-14T10:39:33.829Z,8.50
2024-02-14T10:44:36.632Z,5.50
2024-02-14T10:49:41.247Z,3.80
2024-02-14T10:54:51.264Z,6.20
2024-02-14T10:59:54.834Z,6.20
2024-02-14T11:04:56.775Z,5.80
2024-02-14T11:10:18.726Z,7.60
2024-02-14T11:15:22.909Z,8.10
2024-02-14T11:20:34.503Z,6.10
2024-02-14T11:25:36.613Z,12.70
2024-02-14T11:30:38.581Z,5.70
2024-02-14T11:35:42.653Z,4.90
2024-02-14T11:40:44.925Z,5.20
2024-02-14T11:45:50.571Z,4.10
2024-02-14T11:50:53.602Z,8.40
2024-02-14T11:55:57.530Z,5.10
2024-02-14T12:00:59.199Z,28.50
2024-02-14T12:06:03.146Z,8.00
2024-02-14T12:11:05.197Z,8.50
2024-02-14T12:16:08.309Z,5.90
2024-02-14T12:21:09.986Z,9.00
2024-02-14T12:26:16.645Z,4.70
2024-02-14T12:31:25.313Z,6.20
2024-02-14T12:36:29.001Z,8.20
2024-02-14T12:41:31.936Z,5.60
2024-02-14T12:46:35.113Z,6.90
2024-02-14T12:51:39.827Z,6.70
2024-02-14T12:56:41.705Z,5.90
2024-02-14T13:01:44.675Z,7.50
2024-02-14T13:06:48.056Z,5.50
2024-02-14T13:11:49.687Z,10.00
2024-02-14T13:16:52.104Z,6.60
2024-02-14T13:21:53.759Z,6.30
2024-02-14T13:26:55.350Z,5.70
2024-02-14T13:31:56.912Z,4.90
2024-02-14T13:36:59.698Z,10.40
2024-02-14T13:42:02.535Z,7.10
2024-02-14T13:47:04.886Z,7.70
2024-02-14T13:52:06.620Z,15.80
2024-02-14T13:57:08.574Z,12.70
2024-02-14T14:02:12.820Z,15.70
2024-02-14T14:07:17.120Z,18.30
2024-02-14T14:12:18.739Z,7.80
2024-02-14T14:17:20.760Z,8.70
2024-02-14T14:22:22.413Z,15.60
2024-02-14T14:27:24.000Z,7.50
2024-02-14T14:32:25.631Z,12.20
2024-02-14T14:37:27.228Z,8.70
2024-02-14T14:42:30.349Z,14.00
2024-02-14T14:47:31.998Z,9.00
2024-02-14T14:52:34.976Z,5.20
2024-02-14T14:57:41.892Z,7.60
2024-02-14T15:02:44.623Z,14.00
2024-02-14T15:07:46.825Z,23.20
2024-02-14T15:12:50.857Z,12.50
2024-02-14T15:17:52.553Z,13.50
2024-02-14T15:22:54.291Z,26.20
2024-02-14T15:27:56.129Z,24.90
2024-02-14T15:33:16.834Z,18.20
2024-02-14T15:38:20.160Z,26.70
2024-02-14T15:43:22.187Z,16.30
2024-02-14T15:48:28.041Z,18.50
2024-02-14T15:53:31.743Z,23.80
2024-02-14T15:58:34.924Z,46.20
2024-02-14T16:03:36.483Z,45.40
2024-02-14T16:08:38.400Z,52.90
2024-02-14T16:13:39.968Z,64.40
2024-02-14T16:18:41.796Z,86.30
2024-02-14T16:23:43.513Z,61.60
2024-02-14T16:28:46.548Z,60.70
2024-02-14T16:33:50.950Z,105.70
2024-02-14T16:38:52.894Z,69.80
2024-02-14T16:43:57.236Z,58.30
2024-02-14T16:48:59.019Z,45.40
2024-02-14T16:54:00.889Z,33.80
2024-02-14T16:59:02.502Z,54.40
2024-02-14T17:04:06.084Z,45.50
2024-02-14T17:09:08.307Z,28.70
2024-02-14T17:14:11.117Z,21.70
2024-02-14T17:19:12.986Z,21.10
2024-02-14T17:24:15.087Z,35.90
2024-02-14T17:29:17.830Z,28.00
2024-02-14T17:34:19.548Z,29.00
2024-02-14T17:39:21.322Z,45.30
2024-02-14T17:44:22.975Z,44.30
2024-02-14T17:49:24.795Z,28.30
2024-02-14T17:54:27.456Z,28.90
2024-02-14T17:59:29.028Z,28.00
2024-02-14T18:04:30.817Z,34.90
2024-02-14T18:09:32.420Z,40.40
2024-02-14T18:14:34.069Z,45.50
2024-02-14T18:19:35.647Z,44.00
2024-02-14T18:24:40.167Z,67.50
2024-02-14T18:29:42.129Z,46.90
2024-02-14T18:34:43.800Z,46.60
2024-02-14T18:39:45.386Z,52.90
2024-02-14T18:44:48.348Z,48.90
2024-02-14T18:49:50.618Z,44.30
2024-02-14T18:54:52.348Z,42.00
2024-02-14T18:59:54.347Z,48.90
2024-02-14T19:04:57.539Z,45.60
2024-02-14T19:10:01.638Z,33.50
2024-02-14T19:15:05.018Z,32.80
2024-02-14T19:20:09.673Z,36.40
2024-02-14T19:25:11.732Z,36.20
2024-02-14T19:30:19.157Z,74.30
2024-02-14T19:35:21.032Z,37.30
2024-02-14T19:40:24.874Z,34.90
2024-02-14T19:45:26.697Z,31.70
2024-02-14T19:50:28.362Z,27.50
2024-02-14T19:55:29.982Z,15.90
2024-02-14T20:00:33.238Z,35.20
2024-02-14T20:05:38.086Z,19.00
2024-02-14T20:10:40.490Z,23.40
2024-02-14T20:15:42.068Z,38.30
2024-02-14T20:20:43.815Z,52.70
2024-02-14T20:25:45.481Z,64.10
2024-02-14T20:30:47.127Z,36.60
2024-02-14T20:35:50.071Z,30.90
2024-02-14T20:40:51.656Z,34.70
2024-02-14T20:45:53.299Z,20.80
2024-02-14T20:50:54.915Z,16.50
2024-02-14T20:55:56.887Z,25.90
2024-02-14T21:00:58.595Z,32.70
2024-02-14T21:06:01.151Z,18.70
2024-02-14T21:11:02.885Z,19.80
2024-02-14T21:16:05.689Z,14.70
2024-02-14T21:21:10.550Z,13.50
2024-02-14T21:26:12.448Z,17.50
2024-02-14T21:31:14.464Z,12.50
2024-02-14T21:36:16.685Z,19.70
2024-02-14T21:41:19.212Z,17.80
2024-02-14T21:46:20.784Z,12.90
2024-02-14T21:51:22.371Z,29.30
2024-02-14T21:56:23.932Z,21.70
2024-02-14T22:01:25.666Z,14.10
2024-02-14T22:06:27.749Z,12.10
2024-02-14T22:11:29.517Z,9.00
2024-02-14T22:16:31.129Z,7.30
2024-02-14T22:21:33.629Z,9.90
2024-02-14T22:26:35.274Z,11.90
2024-02-14T22:31:37.074Z,12.00
2024-02-14T22:36:38.887Z,8.70
2024-02-14T22:41:41.629Z,13.80
2024-02-14T22:46:44.782Z,11.10
2024-02-14T22:51:46.561Z,13.10
2024-02-14T22:56:48.535Z,17.30
2024-02-14T23:01:50.065Z,15.90
2024-02-14T23:06:51.755Z,10.60
2024-02-14T23:11:53.414Z,12.40
2024-02-14T23:16:54.989Z,10.30
2024-02-14T23:21:56.686Z,12.90
2024-02-14T23:26:58.739Z,14.20
2024-02-14T23:32:00.398Z,11.20
2024-02-14T23:37:02.410Z,10.90
2024-02-14T23:42:04.470Z,10.90
2024-02-14T23:47:08.179Z,11.20
2024-02-14T23:52:10.079Z,10.50
2024-02-14T23:57:12.130Z,8.40
